sensor_id;sensor_type;location;lat;lon;timestamp;P1;durP1;ratioP1;P2;durP2;ratioP2
28724;SDS011;43472;48.980;9.646;2023-06-14T00:03:25;7.75;;;5.35;;
28724;SDS011;43472;48.980;9.646;2023-06-14T00:08:27;8.05;;;4.75;;
28724;SDS011;43472;48.980;9.646;2023-06-14T00:13:29;8.15;;;3.97;;
28724;SDS011;43472;48.980;9.646;2023-06-14T00:18:31;8.55;;;4.45;;
28724;SDS011;43472;48.980;9.646;2023-06-14T00:23:32;8.75;;;4.38;;
28724;SDS011;43472;48.980;9.646;2023-06-14T00:28:34;7.45;;;4.18;;
28724;SDS011;43472;48.980;9.646;2023-06-14T00:33:36;8.10;;;4.03;;
28724;SDS011;43472;48.980;9.646;2023-06-14T00:38:38;12.45;;;4.72;;
28724;SDS011;43472;48.980;9.646;2023-06-14T00:43:40;10.98;;;5.63;;
28724;SDS011;43472;48.980;9.646;2023-06-14T00:48:42;14.70;;;4.60;;
28724;SDS011;43472;48.980;9.646;2023-06-14T00:53:44;8.68;;;4.55;;
28724;SDS011;43472;48.980;9.646;2023-06-14T00:58:48;6.90;;;4.35;;
28724;SDS011;43472;48.980;9.646;2023-06-14T01:03:52;8.70;;;4.75;;
28724;SDS011;43472;48.980;9.646;2023-06-14T01:14:22;10.02;;;4.93;;
28724;SDS011;43472;48.980;9.646;2023-06-14T01:19:26;8.23;;;5.68;;
28724;SDS011;43472;48.980;9.646;2023-06-14T01:24:29;10.77;;;7.07;;
28724;SDS011;43472;48.980;9.646;2023-06-14T01:29:33;12.88;;;5.80;;
28724;SDS011;43472;48.980;9.646;2023-06-14T01:34:37;6.72;;;5.43;;
28724;SDS011;43472;48.980;9.646;2023-06-14T01:39:39;10.48;;;5.22;;
28724;SDS011;43472;48.980;9.646;2023-06-14T01:44:44;12.38;;;5.40;;
28724;SDS011;43472;48.980;9.646;2023-06-14T01:49:47;8.85;;;5.45;;
28724;SDS011;43472;48.980;9.646;2023-06-14T01:54:50;12.05;;;7.20;;
28724;SDS011;43472;48.980;9.646;2023-06-14T01:59:52;15.75;;;7.75;;
28724;SDS011;43472;48.980;9.646;2023-06-14T02:04:54;9.63;;;6.38;;
28724;SDS011;43472;48.980;9.646;2023-06-14T02:09:58;8.20;;;5.28;;
28724;SDS011;43472;48.980;9.646;2023-06-14T02:15:00;11.50;;;5.68;;
28724;SDS011;43472;48.980;9.646;2023-06-14T02:20:02;9.23;;;6.32;;
28724;SDS011;43472;48.980;9.646;2023-06-14T02:25:06;12.35;;;6.57;;
28724;SDS011;43472;48.980;9.646;2023-06-14T02:30:08;12.68;;;7.05;;
28724;SDS011;43472;48.980;9.646;2023-06-14T02:35:11;8.88;;;6.68;;
28724;SDS011;43472;48.980;9.646;2023-06-14T02:40:14;10.82;;;6.95;;
28724;SDS011;43472;48.980;9.646;2023-06-14T02:45:17;11.43;;;7.70;;
28724;SDS011;43472;48.980;9.646;2023-06-14T02:50:19;14.75;;;8.93;;
28724;SDS011;43472;48.980;9.646;2023-06-14T02:55:22;10.73;;;6.65;;
28724;SDS011;43472;48.980;9.646;2023-06-14T03:00:24;7.80;;;6.10;;
28724;SDS011;43472;48.980;9.646;2023-06-14T03:05:26;13.80;;;7.60;;
28724;SDS011;43472;48.980;9.646;2023-06-14T03:10:29;9.90;;;6.78;;
28724;SDS011;43472;48.980;9.646;2023-06-14T03:15:31;12.07;;;6.78;;
28724;SDS011;43472;48.980;9.646;2023-06-14T03:20:37;9.20;;;6.22;;
28724;SDS011;43472;48.980;9.646;2023-06-14T03:25:40;9.45;;;6.50;;
28724;SDS011;43472;48.980;9.646;2023-06-14T03:30:43;10.63;;;6.47;;
28724;SDS011;43472;48.980;9.646;2023-06-14T03:35:45;12.90;;;7.82;;
28724;SDS011;43472;48.980;9.646;2023-06-14T03:40:47;14.52;;;8.57;;
28724;SDS011;43472;48.980;9.646;2023-06-14T03:45:49;11.07;;;7.80;;
28724;SDS011;43472;48.980;9.646;2023-06-14T03:50:51;14.50;;;7.93;;
28724;SDS011;43472;48.980;9.646;2023-06-14T03:55:54;11.85;;;7.68;;
28724;SDS011;43472;48.980;9.646;2023-06-14T04:00:57;11.48;;;8.18;;
28724;SDS011;43472;48.980;9.646;2023-06-14T04:06:00;15.02;;;9.23;;
28724;SDS011;43472;48.980;9.646;2023-06-14T04:11:02;13.95;;;9.15;;
28724;SDS011;43472;48.980;9.646;2023-06-14T04:16:04;17.13;;;9.30;;
28724;SDS011;43472;48.980;9.646;2023-06-14T04:21:06;12.10;;;8.77;;
28724;SDS011;43472;48.980;9.646;2023-06-14T04:26:09;9.82;;;8.00;;
28724;SDS011;43472;48.980;9.646;2023-06-14T04:31:12;10.43;;;8.23;;
28724;SDS011;43472;48.980;9.646;2023-06-14T04:36:14;9.73;;;8.13;;
28724;SDS011;43472;48.980;9.646;2023-06-14T04:41:22;14.52;;;8.65;;
28724;SDS011;43472;48.980;9.646;2023-06-14T04:46:24;10.05;;;7.60;;
28724;SDS011;43472;48.980;9.646;2023-06-14T04:51:26;12.55;;;9.98;;
28724;SDS011;43472;48.980;9.646;2023-06-14T04:56:30;13.65;;;9.57;;
28724;SDS011;43472;48.980;9.646;2023-06-14T05:01:34;11.68;;;9.13;;
28724;SDS011;43472;48.980;9.646;2023-06-14T05:06:36;11.60;;;8.40;;
28724;SDS011;43472;48.980;9.646;2023-06-14T05:11:39;12.75;;;7.78;;
28724;SDS011;43472;48.980;9.646;2023-06-14T05:16:43;12.50;;;7.35;;
28724;SDS011;43472;48.980;9.646;2023-06-14T05:21:45;11.95;;;7.82;;
28724;SDS011;43472;48.980;9.646;2023-06-14T05:26:48;12.20;;;9.10;;
28724;SDS011;43472;48.980;9.646;2023-06-14T05:31:51;12.40;;;8.45;;
28724;SDS011;43472;48.980;9.646;2023-06-14T05:36:52;13.77;;;9.73;;
28724;SDS011;43472;48.980;9.646;2023-06-14T05:41:54;18.13;;;10.13;;
28724;SDS011;43472;48.980;9.646;2023-06-14T05:46:56;18.25;;;11.50;;
28724;SDS011;43472;48.980;9.646;2023-06-14T05:51:58;19.15;;;10.70;;
28724;SDS011;43472;48.980;9.646;2023-06-14T05:57:00;18.52;;;10.27;;
28724;SDS011;43472;48.980;9.646;2023-06-14T06:02:02;19.55;;;10.90;;
28724;SDS011;43472;48.980;9.646;2023-06-14T06:07:05;16.15;;;10.05;;
28724;SDS011;43472;48.980;9.646;2023-06-14T06:12:07;11.00;;;7.70;;
28724;SDS011;43472;48.980;9.646;2023-06-14T06:17:08;8.93;;;6.85;;
28724;SDS011;43472;48.980;9.646;2023-06-14T06:22:11;15.20;;;6.78;;
28724;SDS011;43472;48.980;9.646;2023-06-14T06:27:13;7.78;;;6.00;;
28724;SDS011;43472;48.980;9.646;2023-06-14T06:32:15;6.88;;;5.30;;
28724;SDS011;43472;48.980;9.646;2023-06-14T06:37:17;6.95;;;4.45;;
28724;SDS011;43472;48.980;9.646;2023-06-14T06:42:19;9.88;;;5.10;;
28724;SDS011;43472;48.980;9.646;2023-06-14T06:47:21;4.88;;;3.80;;
28724;SDS011;43472;48.980;9.646;2023-06-14T06:52:23;6.20;;;4.40;;
28724;SDS011;43472;48.980;9.646;2023-06-14T06:57:25;9.20;;;4.97;;
28724;SDS011;43472;48.980;9.646;2023-06-14T07:02:28;7.78;;;4.03;;
28724;SDS011;43472;48.980;9.646;2023-06-14T07:07:32;10.73;;;4.13;;
28724;SDS011;43472;48.980;9.646;2023-06-14T07:12:34;6.90;;;4.05;;
28724;SDS011;43472;48.980;9.646;2023-06-14T07:17:40;9.40;;;4.05;;
28724;SDS011;43472;48.980;9.646;2023-06-14T07:22:44;9.43;;;3.70;;
28724;SDS011;43472;48.980;9.646;2023-06-14T07:27:46;7.85;;;3.78;;
28724;SDS011;43472;48.980;9.646;2023-06-14T07:32:48;13.00;;;4.20;;
28724;SDS011;43472;48.980;9.646;2023-06-14T07:37:50;7.97;;;3.80;;
28724;SDS011;43472;48.980;9.646;2023-06-14T07:42:52;7.00;;;4.38;;
28724;SDS011;43472;48.980;9.646;2023-06-14T07:47:56;6.15;;;3.65;;
28724;SDS011;43472;48.980;9.646;2023-06-14T07:52:58;5.97;;;4.00;;
28724;SDS011;43472;48.980;9.646;2023-06-14T07:58:00;8.02;;;3.80;;
28724;SDS011;43472;48.980;9.646;2023-06-14T08:03:01;7.68;;;4.05;;
28724;SDS011;43472;48.980;9.646;2023-06-14T08:08:04;6.03;;;3.33;;
28724;SDS011;43472;48.980;9.646;2023-06-14T08:13:06;11.85;;;4.80;;
28724;SDS011;43472;48.980;9.646;2023-06-14T08:18:08;8.63;;;3.92;;
28724;SDS011;43472;48.980;9.646;2023-06-14T08:23:10;10.48;;;3.83;;
28724;SDS011;43472;48.980;9.646;2023-06-14T08:28:12;9.45;;;4.00;;
28724;SDS011;43472;48.980;9.646;2023-06-14T08:33:14;5.43;;;3.95;;
28724;SDS011;43472;48.980;9.646;2023-06-14T08:38:18;17.90;;;5.82;;
28724;SDS011;43472;48.980;9.646;2023-06-14T08:43:19;10.45;;;3.97;;
28724;SDS011;43472;48.980;9.646;2023-06-14T08:48:21;8.57;;;3.60;;
28724;SDS011;43472;48.980;9.646;2023-06-14T08:53:30;5.03;;;3.67;;
28724;SDS011;43472;48.980;9.646;2023-06-14T08:58:41;6.95;;;3.30;;
28724;SDS011;43472;48.980;9.646;2023-06-14T09:03:46;6.95;;;3.88;;
28724;SDS011;43472;48.980;9.646;2023-06-14T09:08:49;4.05;;;2.90;;
28724;SDS011;43472;48.980;9.646;2023-06-14T09:13:52;9.85;;;3.30;;
28724;SDS011;43472;48.980;9.646;2023-06-14T09:18:53;4.18;;;2.85;;
28724;SDS011;43472;48.980;9.646;2023-06-14T09:23:58;5.82;;;2.95;;
28724;SDS011;43472;48.980;9.646;2023-06-14T09:29:04;6.78;;;3.40;;
28724;SDS011;43472;48.980;9.646;2023-06-14T09:34:06;10.90;;;3.17;;
28724;SDS011;43472;48.980;9.646;2023-06-14T09:39:08;7.85;;;3.35;;
28724;SDS011;43472;48.980;9.646;2023-06-14T09:44:10;14.52;;;3.70;;
28724;SDS011;43472;48.980;9.646;2023-06-14T09:49:21;8.75;;;2.95;;
28724;SDS011;43472;48.980;9.646;2023-06-14T09:54:24;5.47;;;2.83;;
28724;SDS011;43472;48.980;9.646;2023-06-14T09:59:27;5.97;;;3.20;;
28724;SDS011;43472;48.980;9.646;2023-06-14T10:04:34;5.53;;;3.03;;
28724;SDS011;43472;48.980;9.646;2023-06-14T10:09:36;9.05;;;3.00;;
28724;SDS011;43472;48.980;9.646;2023-06-14T10:14:40;8.52;;;3.13;;
28724;SDS011;43472;48.980;9.646;2023-06-14T10:19:50;6.32;;;3.00;;
28724;SDS011;43472;48.980;9.646;2023-06-14T10:24:57;8.30;;;3.60;;
28724;SDS011;43472;48.980;9.646;2023-06-14T10:35:05;11.27;;;4.88;;
28724;SDS011;43472;48.980;9.646;2023-06-14T10:40:08;6.38;;;3.85;;
28724;SDS011;43472;48.980;9.646;2023-06-14T10:45:30;5.03;;;2.83;;
28724;SDS011;43472;48.980;9.646;2023-06-14T10:50:33;4.45;;;2.70;;
28724;SDS011;43472;48.980;9.646;2023-06-14T10:55:35;9.15;;;3.33;;
28724;SDS011;43472;48.980;9.646;2023-06-14T11:00:37;5.40;;;3.70;;
28724;SDS011;43472;48.980;9.646;2023-06-14T11:10:58;7.35;;;3.00;;
28724;SDS011;43472;48.980;9.646;2023-06-14T11:16:01;3.83;;;2.85;;
28724;SDS011;43472;48.980;9.646;2023-06-14T11:21:06;10.93;;;3.22;;
28724;SDS011;43472;48.980;9.646;2023-06-14T11:26:10;9.65;;;3.42;;
28724;SDS011;43472;48.980;9.646;2023-06-14T11:31:12;8.55;;;2.90;;
28724;SDS011;43472;48.980;9.646;2023-06-14T11:36:15;6.80;;;4.70;;
28724;SDS011;43472;48.980;9.646;2023-06-14T11:41:17;4.82;;;3.33;;
28724;SDS011;43472;48.980;9.646;2023-06-14T11:46:19;4.63;;;3.00;;
28724;SDS011;43472;48.980;9.646;2023-06-14T11:51:25;5.22;;;2.72;;
28724;SDS011;43472;48.980;9.646;2023-06-14T11:56:27;3.72;;;2.92;;
28724;SDS011;43472;48.980;9.646;2023-06-14T12:01:30;5.13;;;2.63;;
28724;SDS011;43472;48.980;9.646;2023-06-14T12:06:33;15.98;;;4.20;;
28724;SDS011;43472;48.980;9.646;2023-06-14T12:11:37;3.95;;;2.63;;
28724;SDS011;43472;48.980;9.646;2023-06-14T12:16:40;5.95;;;3.03;;
28724;SDS011;43472;48.980;9.646;2023-06-14T12:21:48;10.48;;;3.50;;
28724;SDS011;43472;48.980;9.646;2023-06-14T12:26:51;6.90;;;2.50;;
28724;SDS011;43472;48.980;9.646;2023-06-14T12:31:53;4.25;;;2.88;;
28724;SDS011;43472;48.980;9.646;2023-06-14T12:36:57;5.78;;;3.00;;
28724;SDS011;43472;48.980;9.646;2023-06-14T12:41:59;5.22;;;2.63;;
28724;SDS011;43472;48.980;9.646;2023-06-14T12:47:02;3.97;;;2.85;;
28724;SDS011;43472;48.980;9.646;2023-06-14T12:52:04;6.25;;;2.80;;
28724;SDS011;43472;48.980;9.646;2023-06-14T12:57:06;3.65;;;2.72;;
28724;SDS011;43472;48.980;9.646;2023-06-14T13:02:16;6.63;;;2.80;;
28724;SDS011;43472;48.980;9.646;2023-06-14T13:07:19;3.90;;;2.90;;
28724;SDS011;43472;48.980;9.646;2023-06-14T13:12:21;8.65;;;2.95;;
28724;SDS011;43472;48.980;9.646;2023-06-14T13:17:23;6.55;;;3.20;;
28724;SDS011;43472;48.980;9.646;2023-06-14T13:22:25;4.90;;;3.17;;
28724;SDS011;43472;48.980;9.646;2023-06-14T13:27:26;5.68;;;3.58;;
28724;SDS011;43472;48.980;9.646;2023-06-14T13:32:29;4.85;;;2.90;;
28724;SDS011;43472;48.980;9.646;2023-06-14T13:37:31;11.73;;;3.55;;
28724;SDS011;43472;48.980;9.646;2023-06-14T13:42:33;5.47;;;3.00;;
28724;SDS011;43472;48.980;9.646;2023-06-14T13:47:35;9.32;;;2.58;;
28724;SDS011;43472;48.980;9.646;2023-06-14T13:52:37;8.13;;;3.35;;
28724;SDS011;43472;48.980;9.646;2023-06-14T13:57:56;3.83;;;2.58;;
28724;SDS011;43472;48.980;9.646;2023-06-14T14:02:58;6.57;;;2.58;;
28724;SDS011;43472;48.980;9.646;2023-06-14T14:08:18;6.75;;;2.83;;
28724;SDS011;43472;48.980;9.646;2023-06-14T14:13:37;8.02;;;2.72;;
28724;SDS011;43472;48.980;9.646;2023-06-14T14:18:58;6.00;;;2.67;;
28724;SDS011;43472;48.980;9.646;2023-06-14T14:24:17;6.60;;;2.83;;
28724;SDS011;43472;48.980;9.646;2023-06-14T14:29:37;10.75;;;2.67;;
28724;SDS011;43472;48.980;9.646;2023-06-14T14:34:39;6.00;;;2.45;;
28724;SDS011;43472;48.980;9.646;2023-06-14T14:39:43;5.82;;;2.80;;
28724;SDS011;43472;48.980;9.646;2023-06-14T14:44:46;4.68;;;2.90;;
28724;SDS011;43472;48.980;9.646;2023-06-14T14:49:48;4.47;;;2.70;;
28724;SDS011;43472;48.980;9.646;2023-06-14T14:54:50;5.97;;;2.42;;
28724;SDS011;43472;48.980;9.646;2023-06-14T14:59:56;7.88;;;3.08;;
28724;SDS011;43472;48.980;9.646;2023-06-14T15:04:58;4.78;;;2.65;;
28724;SDS011;43472;48.980;9.646;2023-06-14T15:10:02;6.85;;;2.92;;
28724;SDS011;43472;48.980;9.646;2023-06-14T15:15:04;3.38;;;2.63;;
28724;SDS011;43472;48.980;9.646;2023-06-14T15:20:06;18.90;;;2.83;;
28724;SDS011;43472;48.980;9.646;2023-06-14T15:25:09;9.45;;;2.92;;
28724;SDS011;43472;48.980;9.646;2023-06-14T15:30:11;7.95;;;2.97;;
28724;SDS011;43472;48.980;9.646;2023-06-14T15:35:17;8.82;;;2.92;;
28724;SDS011;43472;48.980;9.646;2023-06-14T15:40:19;4.30;;;2.97;;
28724;SDS011;43472;48.980;9.646;2023-06-14T15:45:24;21.02;;;4.88;;
28724;SDS011;43472;48.980;9.646;2023-06-14T15:50:26;14.73;;;3.50;;
28724;SDS011;43472;48.980;9.646;2023-06-14T15:55:29;5.07;;;2.80;;
28724;SDS011;43472;48.980;9.646;2023-06-14T16:00:31;12.00;;;3.15;;
28724;SDS011;43472;48.980;9.646;2023-06-14T16:05:33;5.50;;;3.13;;
28724;SDS011;43472;48.980;9.646;2023-06-14T16:10:35;6.55;;;3.00;;
28724;SDS011;43472;48.980;9.646;2023-06-14T16:15:37;6.43;;;2.90;;
28724;SDS011;43472;48.980;9.646;2023-06-14T16:20:39;4.90;;;3.10;;
28724;SDS011;43472;48.980;9.646;2023-06-14T16:25:41;6.55;;;2.80;;
28724;SDS011;43472;48.980;9.646;2023-06-14T16:30:43;8.40;;;2.58;;
28724;SDS011;43472;48.980;9.646;2023-06-14T16:35:46;4.90;;;2.55;;
28724;SDS011;43472;48.980;9.646;2023-06-14T16:40:48;5.97;;;3.15;;
28724;SDS011;43472;48.980;9.646;2023-06-14T16:45:50;5.00;;;2.40;;
28724;SDS011;43472;48.980;9.646;2023-06-14T16:50:52;6.03;;;2.67;;
28724;SDS011;43472;48.980;9.646;2023-06-14T16:55:53;4.32;;;3.00;;
28724;SDS011;43472;48.980;9.646;2023-06-14T17:00:55;6.80;;;3.17;;
28724;SDS011;43472;48.980;9.646;2023-06-14T17:05:57;5.70;;;2.63;;
28724;SDS011;43472;48.980;9.646;2023-06-14T17:10:59;5.97;;;2.90;;
28724;SDS011;43472;48.980;9.646;2023-06-14T17:16:02;4.07;;;2.95;;
28724;SDS011;43472;48.980;9.646;2023-06-14T17:21:04;4.82;;;2.97;;
28724;SDS011;43472;48.980;9.646;2023-06-14T17:26:06;3.70;;;2.80;;
28724;SDS011;43472;48.980;9.646;2023-06-14T17:31:08;4.22;;;2.60;;
28724;SDS011;43472;48.980;9.646;2023-06-14T17:36:10;4.70;;;2.58;;
28724;SDS011;43472;48.980;9.646;2023-06-14T17:41:11;8.55;;;2.83;;
28724;SDS011;43472;48.980;9.646;2023-06-14T17:46:15;4.65;;;3.30;;
28724;SDS011;43472;48.980;9.646;2023-06-14T17:51:17;3.83;;;2.80;;
28724;SDS011;43472;48.980;9.646;2023-06-14T17:56:20;3.95;;;3.03;;
28724;SDS011;43472;48.980;9.646;2023-06-14T18:01:24;5.40;;;2.80;;
28724;SDS011;43472;48.980;9.646;2023-06-14T18:06:26;3.47;;;2.30;;
28724;SDS011;43472;48.980;9.646;2023-06-14T18:11:28;7.10;;;2.63;;
28724;SDS011;43472;48.980;9.646;2023-06-14T18:16:32;3.83;;;2.25;;
28724;SDS011;43472;48.980;9.646;2023-06-14T18:21:33;6.72;;;2.67;;
28724;SDS011;43472;48.980;9.646;2023-06-14T18:26:36;2.85;;;2.33;;
28724;SDS011;43472;48.980;9.646;2023-06-14T18:31:38;4.38;;;2.78;;
28724;SDS011;43472;48.980;9.646;2023-06-14T18:36:40;4.90;;;2.40;;
28724;SDS011;43472;48.980;9.646;2023-06-14T18:41:42;4.93;;;2.92;;
28724;SDS011;43472;48.980;9.646;2023-06-14T18:46:45;5.60;;;3.10;;
28724;SDS011;43472;48.980;9.646;2023-06-14T18:51:47;7.30;;;2.70;;
28724;SDS011;43472;48.980;9.646;2023-06-14T18:56:49;3.47;;;2.92;;
28724;SDS011;43472;48.980;9.646;2023-06-14T19:01:51;3.30;;;3.00;;
28724;SDS011;43472;48.980;9.646;2023-06-14T19:06:53;9.23;;;3.05;;
28724;SDS011;43472;48.980;9.646;2023-06-14T19:11:54;44.83;;;26.63;;
28724;SDS011;43472;48.980;9.646;2023-06-14T19:16:56;5.30;;;2.88;;
28724;SDS011;43472;48.980;9.646;2023-06-14T19:21:58;33.70;;;5.35;;
28724;SDS011;43472;48.980;9.646;2023-06-14T19:27:00;14.30;;;3.17;;
28724;SDS011;43472;48.980;9.646;2023-06-14T19:32:02;6.65;;;3.42;;
28724;SDS011;43472;48.980;9.646;2023-06-14T19:37:04;8.90;;;2.88;;
28724;SDS011;43472;48.980;9.646;2023-06-14T19:42:08;6.53;;;3.38;;
28724;SDS011;43472;48.980;9.646;2023-06-14T19:47:10;3.00;;;2.70;;
28724;SDS011;43472;48.980;9.646;2023-06-14T19:52:12;10.45;;;3.50;;
28724;SDS011;43472;48.980;9.646;2023-06-14T19:57:13;8.98;;;5.60;;
28724;SDS011;43472;48.980;9.646;2023-06-14T20:02:16;5.25;;;3.65;;
28724;SDS011;43472;48.980;9.646;2023-06-14T20:07:20;8.48;;;4.60;;
28724;SDS011;43472;48.980;9.646;2023-06-14T20:12:22;7.97;;;3.97;;
28724;SDS011;43472;48.980;9.646;2023-06-14T20:17:24;10.52;;;3.67;;
28724;SDS011;43472;48.980;9.646;2023-06-14T20:22:26;6.20;;;4.18;;
28724;SDS011;43472;48.980;9.646;2023-06-14T20:27:28;9.43;;;4.10;;
28724;SDS011;43472;48.980;9.646;2023-06-14T20:32:30;19.13;;;4.78;;
28724;SDS011;43472;48.980;9.646;2023-06-14T20:37:32;10.60;;;5.15;;
28724;SDS011;43472;48.980;9.646;2023-06-14T20:42:36;11.75;;;5.70;;
28724;SDS011;43472;48.980;9.646;2023-06-14T20:47:38;8.30;;;5.60;;
28724;SDS011;43472;48.980;9.646;2023-06-14T20:52:40;19.50;;;8.43;;
28724;SDS011;43472;48.980;9.646;2023-06-14T20:57:41;10.32;;;5.07;;
28724;SDS011;43472;48.980;9.646;2023-06-14T21:02:45;8.65;;;4.82;;
28724;SDS011;43472;48.980;9.646;2023-06-14T21:07:47;11.85;;;5.03;;
28724;SDS011;43472;48.980;9.646;2023-06-14T21:12:49;7.53;;;4.35;;
28724;SDS011;43472;48.980;9.646;2023-06-14T21:17:54;4.85;;;4.35;;
28724;SDS011;43472;48.980;9.646;2023-06-14T21:22:57;10.95;;;6.20;;
28724;SDS011;43472;48.980;9.646;2023-06-14T21:27:59;6.90;;;4.90;;
28724;SDS011;43472;48.980;9.646;2023-06-14T21:33:01;6.25;;;4.60;;
28724;SDS011;43472;48.980;9.646;2023-06-14T21:38:04;9.38;;;5.22;;
28724;SDS011;43472;48.980;9.646;2023-06-14T21:43:06;6.47;;;4.78;;
28724;SDS011;43472;48.980;9.646;2023-06-14T21:48:08;7.25;;;4.38;;
28724;SDS011;43472;48.980;9.646;2023-06-14T21:53:10;8.18;;;4.65;;
28724;SDS011;43472;48.980;9.646;2023-06-14T21:58:12;7.22;;;4.25;;
28724;SDS011;43472;48.980;9.646;2023-06-14T22:03:14;7.47;;;4.60;;
28724;SDS011;43472;48.980;9.646;2023-06-14T22:08:16;8.82;;;4.60;;
28724;SDS011;43472;48.980;9.646;2023-06-14T22:13:18;6.38;;;4.68;;
28724;SDS011;43472;48.980;9.646;2023-06-14T22:18:21;11.10;;;4.78;;
28724;SDS011;43472;48.980;9.646;2023-06-14T22:23:23;10.00;;;4.90;;
28724;SDS011;43472;48.980;9.646;2023-06-14T22:28:27;7.68;;;4.57;;
28724;SDS011;43472;48.980;9.646;2023-06-14T22:33:29;10.18;;;5.03;;
28724;SDS011;43472;48.980;9.646;2023-06-14T22:38:30;6.57;;;4.75;;
28724;SDS011;43472;48.980;9.646;2023-06-14T22:43:36;11.55;;;5.70;;
28724;SDS011;43472;48.980;9.646;2023-06-14T22:48:40;8.23;;;5.53;;
28724;SDS011;43472;48.980;9.646;2023-06-14T22:53:51;7.60;;;5.53;;
28724;SDS011;43472;48.980;9.646;2023-06-14T22:58:53;9.65;;;5.60;;
28724;SDS011;43472;48.980;9.646;2023-06-14T23:03:55;10.30;;;4.78;;
28724;SDS011;43472;48.980;9.646;2023-06-14T23:08:57;10.50;;;5.05;;
28724;SDS011;43472;48.980;9.646;2023-06-14T23:14:01;8.82;;;5.55;;
28724;SDS011;43472;48.980;9.646;2023-06-14T23:19:03;22.60;;;6.03;;
28724;SDS011;43472;48.980;9.646;2023-06-14T23:24:05;11.60;;;5.50;;
28724;SDS011;43472;48.980;9.646;2023-06-14T23:29:09;13.50;;;6.38;;
28724;SDS011;43472;48.980;9.646;2023-06-14T23:34:11;8.63;;;5.55;;
28724;SDS011;43472;48.980;9.646;2023-06-14T23:39:12;7.07;;;5.47;;
28724;SDS011;43472;48.980;9.646;2023-06-14T23:44:14;8.85;;;6.30;;
28724;SDS011;43472;48.980;9.646;2023-06-14T23:49:23;11.75;;;4.78;;
28724;SDS011;43472;48.980;9.646;2023-06-14T23:54:25;10.65;;;4.47;;
28724;SDS011;43472;48.980;9.646;2023-06-14T23:59:27;7.65;;;4.93;;
